Weather observations for the past three days for
Rutherfordton, Rutherford County-Marchman Field Airport
| Date | Time (edt) | Wind (kph) | Vis. (km) | Weather | Sky Cond. | Temperature (ºC) | Relative Humidity | Wind Chill (°C) | Heat Index (°C) | Pressure | Precipitation (cm) | ||||||
|---|---|---|---|---|---|---|---|---|---|---|---|---|---|---|---|---|---|
| Air | Dwpt | 6 hour | altimeter (cm) | sea level (mb) | 1 hr | 3 hr | 6 hr | ||||||||||
| Max. | Min. | ||||||||||||||||
| 01 | 14:35 | E 7 | 16.09 | Partly Cloudy | SCT050 | 33 | 20 | 46% | 35 | 76.53 | 0.0 | ||||||
| 01 | 14:15 | E 7 | 16.09 | Fair | CLR | 33 | 20 | 46% | 35 | 76.53 | 0.0 | ||||||
| 01 | 13:55 | Calm | 16.09 | Fair | CLR | 32 | 20 | 49% | 34 | 76.53 | 0.0 | ||||||
| 01 | 13:35 | Calm | 16.09 | Fair | CLR | 32 | 20 | 49% | 34 | 76.56 | 0.0 | ||||||
| 01 | 13:15 | NW 7 | 16.09 | Fair | CLR | 32 | 21 | 52% | 35 | 76.58 | 0.0 | ||||||
| 01 | 12:55 | Calm | 16.09 | Fair | CLR | 32 | 20 | 49% | 34 | 76.58 | 0.0 | ||||||
| 01 | 12:35 | NW 13 | 16.09 | Fair | CLR | 31 | 20 | 52% | 33 | 76.61 | 0.0 | ||||||
| 01 | 12:15 | NW 6 | 16.09 | Fair | CLR | 31 | 21 | 55% | 34 | 76.61 | 0.0 | ||||||
| 01 | 11:55 | Calm | 16.09 | Fair | CLR | 30 | 21 | 59% | 33 | 76.63 | 0.0 | ||||||
| 01 | 11:35 | Calm | 16.09 | Fair | CLR | 30 | 21 | 59% | 33 | 76.63 | 0.0 | ||||||
| 01 | 11:15 | Calm | 16.09 | Fair | CLR | 29 | 21 | 62% | 31 | 76.63 | 0.0 | ||||||
| 01 | 10:55 | Calm | 16.09 | Fair | CLR | 29 | 21 | 62% | 31 | 76.66 | 0.0 | ||||||
| 01 | 10:35 | Calm | 16.09 | Fair | CLR | 28 | 20 | 62% | 30 | 76.63 | 0.0 | ||||||
| 01 | 10:15 | NW 7 | 16.09 | Fair | CLR | 27 | 20 | 66% | 29 | 76.63 | 0.0 | ||||||
| 01 | 09:55 | Calm | 16.09 | Fair | CLR | 26 | 21 | 74% | 27 | 76.66 | 0.0 | ||||||
| 01 | 09:35 | NW 7 | 16.09 | Fair | CLR | 26 | 20 | 70% | 27 | 76.63 | 0.0 | ||||||
| 01 | 09:15 | NW 6 | 16.09 | Fair | CLR | 25 | 20 | 74% | 26 | 76.63 | 0.0 | ||||||
| 01 | 08:55 | NW 6 | 16.09 | Fair | CLR | 23 | 20 | 83% | 76.63 | 0.0 | |||||||
| 01 | 08:35 | Calm | 16.09 | Fair | CLR | 22 | 20 | 88% | 76.63 | 0.0 | |||||||
| 01 | 08:15 | Calm | 16.09 | Fair | CLR | 21 | 20 | 94% | 76.63 | 0.0 | |||||||
| 01 | 07:55 | Calm | 16.09 | Fair | CLR | 20 | 20 | 100% | 76.63 | 0.0 | |||||||
| 01 | 07:35 | Calm | 11.27 | Fair | CLR | 19 | 19 | 100% | 76.61 | 0.0 | |||||||
| 01 | 07:15 | Calm | 16.09 | Fair | CLR | 20 | 20 | 100% | 76.58 | 0.0 | |||||||
| 01 | 06:55 | Calm | 16.09 | Fair | CLR | 20 | 20 | 100% | 76.56 | 0.0 | |||||||
| 01 | 06:35 | Calm | 16.09 | Fair | CLR | 20 | 20 | 100% | 76.56 | 0.0 | |||||||
| 01 | 06:15 | Calm | 16.09 | Fair | CLR | 20 | 20 | 100% | 76.56 | 0.0 | |||||||
| 01 | 05:55 | Calm | 16.09 | Fair | CLR | 20 | 20 | 100% | 76.53 | 0.0 | |||||||
| 01 | 05:35 | NW 7 | 16.09 | Fair | CLR | 20 | 20 | 100% | 76.53 | 0.0 | |||||||
| 01 | 05:15 | NW 6 | 16.09 | Fair | CLR | 20 | 20 | 100% | 76.53 | 0.0 | |||||||
| 01 | 04:55 | NW 6 | 16.09 | Fair | CLR | 20 | 20 | 100% | 76.56 | 0.0 | |||||||
| 01 | 04:35 | NW 6 | 16.09 | Fair | CLR | 20 | 20 | 100% | 76.56 | 0.0 | |||||||
| 01 | 04:15 | Calm | 16.09 | Fair | CLR | 20 | 20 | 100% | 76.56 | 0.0 | |||||||
| 01 | 03:55 | Calm | 16.09 | Fair | CLR | 20 | 20 | 100% | 76.56 | 0.0 | |||||||
| 01 | 03:35 | NW 7 | 11.27 | Fair | CLR | 20 | 20 | 100% | 76.56 | 0.0 | |||||||
| 01 | 03:15 | Calm | 16.09 | Fair | CLR | 21 | 21 | 100% | 76.58 | 0.0 | |||||||
| 01 | 02:55 | Calm | 16.09 | Fair | CLR | 21 | 21 | 100% | 76.58 | 0.0 | |||||||
| 01 | 02:35 | Calm | 16.09 | Fair | CLR | 21 | 21 | 100% | 76.58 | 0.0 | |||||||
| 01 | 02:15 | Calm | 16.09 | Fair | CLR | 21 | 21 | 100% | 76.58 | 0.0 | |||||||
| 01 | 01:55 | NW 7 | 16.09 | Fair | CLR | 21 | 21 | 100% | 76.58 | 0.0 | |||||||
| 01 | 01:35 | Calm | 16.09 | Fair | CLR | 21 | 21 | 100% | 76.61 | 0.0 | |||||||
| 01 | 01:15 | NW 6 | 16.09 | Fair | CLR | 21 | 21 | 100% | 76.61 | 0.0 | |||||||
| 01 | 00:55 | Calm | 16.09 | Fair | CLR | 22 | 22 | 100% | 76.61 | 0.0 | |||||||
| 01 | 00:35 | Calm | 11.27 | Fair | CLR | 21 | 21 | 100% | 76.61 | 0.0 | |||||||
| 01 | 00:15 | NW 6 | 16.09 | Fair | CLR | 22 | 22 | 100% | 76.61 | 0.0 | |||||||
| 31 | 23:35 | Calm | 16.09 | Fair | CLR | 22 | 22 | 100% | 76.58 | 0.0 | |||||||
| 31 | 23:15 | Calm | 16.09 | Fair | CLR | 22 | 22 | 100% | 76.58 | 0.0 | |||||||
| 31 | 22:55 | Calm | 16.09 | Fair | CLR | 22 | 22 | 100% | 76.61 | 0.0 | |||||||
| 31 | 22:35 | Calm | 16.09 | Fair | CLR | 22 | 22 | 100% | 76.58 | 0.0 | |||||||
| 31 | 22:15 | Calm | 16.09 | Fair | CLR | 22 | 22 | 100% | 76.58 | 0.0 | |||||||
| 31 | 21:55 | Calm | 16.09 | Fair | CLR | 23 | 23 | 100% | 76.58 | 0.0 | |||||||
| 31 | 21:35 | NW 6 | 16.09 | Fair | CLR | 23 | 23 | 100% | 76.56 | 0.0 | |||||||
| 31 | 21:15 | NW 6 | 16.09 | Fair | CLR | 23 | 23 | 100% | 76.53 | 0.0 | |||||||
| 31 | 20:55 | Calm | 16.09 | Fair | CLR | 24 | 22 | 89% | 24 | 76.53 | 0.0 | ||||||
| 31 | 20:35 | NW 6 | 16.09 | Fair | CLR | 23 | 23 | 100% | 76.53 | 0.0 | |||||||
| 31 | 20:15 | Calm | 16.09 | Fair | CLR | 25 | 22 | 83% | 26 | 76.53 | 0.0 | ||||||
| 31 | 19:35 | Calm | 16.09 | Fair | CLR | 25 | 22 | 83% | 26 | 76.53 | 0.0 | ||||||
| 31 | 19:15 | NW 6 | 16.09 | Fair | CLR | 25 | 22 | 83% | 26 | 76.53 | 0.0 | ||||||
| 31 | 18:55 | Calm | 16.09 | Fair | CLR | 26 | 22 | 79% | 28 | 76.53 | 0.0 | ||||||
| 31 | 18:35 | Calm | 16.09 | Fair | CLR | 26 | 21 | 74% | 27 | 76.53 | 0.0 | ||||||
| 31 | 18:15 | W 6 | 16.09 | Fair | CLR | 26 | 21 | 74% | 27 | 76.53 | 0.0 | ||||||
| 31 | 17:55 | W 6 | 16.09 | Fair | CLR | 26 | 21 | 74% | 27 | 76.56 | 0.0 | ||||||
| 31 | 17:35 | NW 6 | 16.09 | Partly Cloudy | SCT110 | 26 | 22 | 79% | 28 | 76.58 | 0.0 | ||||||
| 31 | 17:15 | Calm | 16.09 | Partly Cloudy | SCT100 | 25 | 22 | 83% | 26 | 76.56 | 0.0 | ||||||
| 31 | 16:55 | NW 6 | 16.09 | Partly Cloudy | SCT050 SCT060 SCT080 | 25 | 22 | 83% | 26 | 76.56 | 0.0 | 0.08 | |||||
| 31 | 16:35 | NW 13 G 26 | 4.83 | Thunderstorm Rain | BKN055 BKN070 OVC110 | 26 | 21 | 74% | 27 | 76.58 | 0.0 | 0.08 | |||||
| 31 | 16:15 | W 6 | 16.09 | Thunderstorm in Vicinity | SCT110 | 31 | 19 | 49% | 32 | 76.58 | 0.0 | ||||||
| 31 | 15:55 | S 6 | 16.09 | Thunderstorm | SCT120 | 31 | 19 | 49% | 32 | 76.56 | 0.0 | ||||||
| 31 | 15:35 | Calm | 16.09 | Fair | CLR | 32 | 20 | 49% | 34 | 76.58 | 0.0 | ||||||
| 31 | 15:15 | W 7 | 16.09 | Partly Cloudy | SCT047 | 31 | 20 | 52% | 33 | 76.58 | 0.0 | ||||||
| 31 | 14:55 | S 7 | 16.09 | Fair | CLR | 31 | 20 | 52% | 33 | 76.58 | 0.0 | ||||||
| 31 | 14:35 | Calm | 16.09 | Fair | CLR | 31 | 20 | 52% | 33 | 76.61 | 0.0 | ||||||
| 31 | 14:15 | SW 6 | 16.09 | Fair | CLR | 30 | 21 | 59% | 33 | 76.63 | 0.0 | ||||||
| 31 | 13:55 | Calm | 16.09 | Fair | CLR | 30 | 21 | 59% | 33 | 76.63 | 0.0 | ||||||
| 31 | 13:35 | SW 6 | 16.09 | Fair | CLR | 30 | 21 | 59% | 33 | 76.66 | 0.0 | ||||||
| 31 | 13:15 | S 7 | 16.09 | Fair | CLR | 30 | 21 | 59% | 33 | 76.66 | 0.0 | ||||||
| 31 | 12:55 | Calm | 16.09 | Fair | CLR | 29 | 21 | 62% | 31 | 76.68 | 0.0 | ||||||
| 31 | 12:35 | Calm | 16.09 | Fair | CLR | 29 | 21 | 62% | 31 | 76.68 | 0.0 | ||||||
| 31 | 12:15 | Calm | 16.09 | Fair | CLR | 29 | 21 | 62% | 31 | 76.68 | 0.0 | ||||||
| 31 | 11:55 | SE 6 | 16.09 | Fair | CLR | 28 | 22 | 70% | 31 | 76.68 | 0.0 | ||||||
| 31 | 11:35 | Calm | 16.09 | Fair | CLR | 28 | 21 | 66% | 30 | 76.71 | 0.0 | ||||||
| 31 | 11:15 | Calm | 16.09 | Fair | CLR | 27 | 21 | 70% | 29 | 76.68 | 0.0 | ||||||
| 31 | 10:55 | Calm | 16.09 | Fair | CLR | 27 | 21 | 70% | 29 | 76.71 | 0.0 | ||||||
| 31 | 10:35 | Calm | 16.09 | Fair | CLR | 26 | 21 | 74% | 27 | 76.71 | 0.0 | ||||||
| 31 | 10:15 | Calm | 16.09 | Fair | CLR | 26 | 21 | 74% | 27 | 76.73 | 0.0 | ||||||
| 31 | 09:55 | Calm | 16.09 | Fair | CLR | 25 | 20 | 74% | 26 | 76.68 | 0.0 | ||||||
| 31 | 09:35 | W 6 | 16.09 | Fair | CLR | 25 | 21 | 79% | 26 | 76.71 | 0.0 | ||||||
| 31 | 09:15 | Calm | 16.09 | Fair | CLR | 23 | 21 | 89% | 76.71 | 0.0 | |||||||
| 31 | 08:55 | Calm | 16.09 | Fair | CLR | 22 | 21 | 94% | 76.71 | 0.0 | |||||||
| 31 | 08:35 | Calm | 16.09 | Fair | CLR | 21 | 21 | 100% | 76.68 | 0.0 | |||||||
| 31 | 08:15 | Calm | 11.27 | Fair | CLR | 20 | 20 | 100% | 76.68 | 0.0 | |||||||
| 31 | 07:55 | Calm | 16.09 | Fair | CLR | 20 | 20 | 100% | 76.68 | 0.0 | |||||||
| 31 | 07:35 | Calm | 16.09 | Fair | CLR | 19 | 19 | 100% | 76.68 | 0.0 | |||||||
| 31 | 07:15 | Calm | 11.27 | Fair | CLR | 18 | 18 | 100% | 76.68 | 0.0 | |||||||
| 31 | 06:55 | Calm | 16.09 | Fair | CLR | 19 | 19 | 100% | 76.66 | 0.0 | |||||||
| 31 | 06:35 | Calm | 8.05 | Fog/Mist | CLR | 18 | 18 | 100% | 76.66 | 0.0 | |||||||
| 31 | 06:15 | Calm | 16.09 | Fair | CLR | 18 | 18 | 100% | 76.63 | 0.0 | |||||||
| 31 | 05:55 | Calm | 16.09 | Fair | CLR | 19 | 19 | 100% | 76.63 | 0.0 | |||||||
| 31 | 05:35 | Calm | 11.27 | Fair | CLR | 19 | 19 | 100% | 76.63 | 0.0 | |||||||
| 31 | 05:15 | NW 6 | 16.09 | Fair | CLR | 19 | 19 | 100% | 76.63 | 0.0 | |||||||
| 31 | 04:55 | Calm | 11.27 | Fair | CLR | 19 | 19 | 100% | 76.63 | 0.0 | |||||||
| 31 | 04:35 | Calm | 11.27 | Fair | CLR | 19 | 19 | 100% | 76.63 | 0.0 | |||||||
| 31 | 04:15 | Calm | 11.27 | Fair | CLR | 19 | 19 | 100% | 76.63 | 0.0 | |||||||
| 31 | 03:55 | Calm | 6.44 | Fog/Mist | CLR | 19 | 19 | 100% | 76.63 | 0.0 | |||||||
| 31 | 03:35 | Calm | 16.09 | Fair | CLR | 20 | 20 | 100% | 76.63 | 0.0 | |||||||
| 31 | 03:15 | Calm | 16.09 | Fair | CLR | 20 | 20 | 100% | 76.63 | 0.0 | |||||||
| 31 | 02:55 | Calm | 16.09 | Fair | CLR | 20 | 20 | 100% | 76.63 | 0.0 | |||||||
| 31 | 02:35 | Calm | 16.09 | Fair | CLR | 20 | 20 | 100% | 76.63 | 0.0 | |||||||
| 31 | 02:15 | Calm | 11.27 | Fair | CLR | 20 | 20 | 100% | 76.66 | 0.0 | |||||||
| 31 | 01:55 | Calm | 16.09 | Fair | CLR | 20 | 20 | 100% | 76.66 | 0.0 | |||||||
| 31 | 01:35 | Calm | 16.09 | Fair | CLR | 20 | 20 | 100% | 76.66 | 0.0 | |||||||
| 31 | 01:15 | Calm | 16.09 | Fair | CLR | 21 | 21 | 100% | 76.66 | 0.0 | |||||||
| 31 | 00:55 | Calm | 16.09 | Fair | CLR | 21 | 21 | 100% | 76.66 | 0.0 | |||||||
| 31 | 00:35 | Calm | 16.09 | Fair | CLR | 21 | 21 | 100% | 76.66 | 0.0 | |||||||
| 31 | 00:15 | Calm | 11.27 | Fair | CLR | 21 | 21 | 100% | 76.68 | 0.0 | |||||||
| 30 | 23:55 | Calm | 11.27 | Fair | CLR | 21 | 21 | 100% | 76.68 | 0.0 | |||||||
| 30 | 23:35 | Calm | 16.09 | Fair | CLR | 21 | 21 | 100% | 76.68 | 0.0 | |||||||
| 30 | 23:15 | Calm | 16.09 | Fair | CLR | 22 | 21 | 94% | 76.68 | 0.0 | |||||||
| 30 | 22:55 | Calm | 16.09 | Fair | CLR | 22 | 22 | 100% | 76.68 | 0.0 | |||||||
| 30 | 22:35 | Calm | 16.09 | Fair | CLR | 22 | 21 | 94% | 76.68 | 0.0 | |||||||
| 30 | 22:15 | Calm | 16.09 | Fair | CLR | 22 | 21 | 94% | 76.68 | 0.0 | |||||||
| 30 | 21:55 | Calm | 16.09 | Fair | CLR | 24 | 21 | 83% | 24 | 76.68 | 0.0 | ||||||
| 30 | 21:35 | Calm | 16.09 | Fair | CLR | 23 | 22 | 94% | 76.66 | 0.0 | |||||||
| 30 | 21:15 | Calm | 16.09 | Fair | CLR | 23 | 22 | 94% | 76.63 | 0.0 | |||||||
| 30 | 20:55 | Calm | 16.09 | Fair | CLR | 25 | 21 | 79% | 26 | 76.63 | 0.0 | ||||||
| 30 | 20:35 | Calm | 16.09 | Fair | CLR | 25 | 21 | 79% | 26 | 76.63 | 0.0 | ||||||
| 30 | 20:15 | Calm | 16.09 | Fair | CLR | 26 | 21 | 74% | 27 | 76.61 | 0.0 | ||||||
| 30 | 19:55 | Calm | 16.09 | Fair | CLR | 26 | 21 | 74% | 27 | 76.61 | 0.0 | ||||||
| 30 | 19:35 | Calm | 16.09 | Fair | CLR | 27 | 20 | 66% | 29 | 76.61 | 0.0 | ||||||
| 30 | 19:15 | Calm | 16.09 | Fair | CLR | 27 | 20 | 66% | 29 | 76.61 | 0.0 | ||||||
| 30 | 18:55 | Calm | 16.09 | Fair | CLR | 28 | 20 | 62% | 30 | 76.58 | 0.0 | ||||||
| 30 | 18:15 | Calm | 16.09 | Fair | CLR | 29 | 19 | 55% | 30 | 76.58 | 0.0 | ||||||
| 30 | 17:55 | S 7 | 16.09 | Fair | CLR | 29 | 19 | 55% | 30 | 76.58 | 0.0 | ||||||
| 30 | 17:35 | S 6 | 16.09 | Fair | CLR | 29 | 19 | 55% | 30 | 76.61 | 0.0 | ||||||
| 30 | 17:15 | Calm | 16.09 | Fair | CLR | 29 | 19 | 55% | 30 | 76.61 | 0.0 | ||||||
| 30 | 16:55 | S 9 | 16.09 | Fair | CLR | 29 | 20 | 58% | 31 | 76.61 | 0.0 | ||||||
| 30 | 16:35 | S 7 | 16.09 | Fair | CLR | 29 | 20 | 58% | 31 | 76.61 | 0.0 | ||||||
| 30 | 16:15 | SE 6 | 16.09 | Partly Cloudy | SCT036 | 29 | 20 | 58% | 31 | 76.63 | 0.0 | ||||||
| 30 | 15:55 | S 7 | 16.09 | Partly Cloudy | SCT035 SCT041 | 29 | 20 | 58% | 31 | 76.63 | 0.0 | ||||||
| 30 | 15:35 | SE 9 | 16.09 | Overcast | BKN036 OVC044 | 29 | 20 | 58% | 31 | 76.66 | 0.0 | ||||||
| 30 | 15:15 | S 7 | 16.09 | Mostly Cloudy | SCT034 BKN044 BKN049 | 28 | 20 | 62% | 30 | 76.68 | 0.0 | ||||||
| 30 | 14:55 | S 6 | 16.09 | Mostly Cloudy | SCT032 SCT039 BKN046 | 28 | 20 | 62% | 30 | 76.71 | 0.0 | ||||||
| 30 | 14:35 | S 7 | 16.09 | Partly Cloudy | SCT030 SCT039 | 28 | 21 | 66% | 30 | 76.73 | 0.0 | ||||||
| 30 | 14:15 | E 6 | 16.09 | Partly Cloudy | SCT030 SCT037 SCT043 | 27 | 20 | 66% | 29 | 76.76 | 0.0 | ||||||
| 30 | 13:55 | S 7 | 16.09 | Fair | CLR | 28 | 21 | 66% | 30 | 76.78 | 0.0 | ||||||
| 30 | 13:35 | Calm | 16.09 | Partly Cloudy | SCT043 | 28 | 21 | 66% | 30 | 76.78 | 0.0 | ||||||
| 30 | 13:15 | Calm | 16.09 | Mostly Cloudy | BKN041 | 27 | 21 | 70% | 29 | 76.81 | 0.0 | ||||||
| 30 | 12:55 | SE 7 | 16.09 | Partly Cloudy | SCT040 | 27 | 21 | 70% | 29 | 76.84 | 0.0 | ||||||
| 30 | 12:35 | Calm | 16.09 | Mostly Cloudy | BKN040 | 26 | 21 | 74% | 27 | 76.86 | 0.0 | ||||||
| 30 | 12:15 | Calm | 16.09 | Overcast | SCT016 OVC036 | 26 | 21 | 74% | 27 | 76.86 | 0.0 | ||||||
| 30 | 11:55 | Calm | 16.09 | Overcast | SCT016 OVC034 | 26 | 21 | 74% | 27 | 76.86 | 0.0 | ||||||
| 30 | 11:35 | Calm | 16.09 | Overcast | SCT018 OVC034 | 25 | 21 | 79% | 26 | 76.86 | 0.0 | ||||||
| 30 | 11:15 | Calm | 16.09 | Overcast | BKN012 OVC034 | 25 | 21 | 79% | 26 | 76.89 | 0.0 | ||||||
| 30 | 10:55 | Calm | 16.09 | Overcast | BKN012 OVC017 | 24 | 21 | 83% | 24 | 76.86 | 0.0 | ||||||
| 30 | 10:35 | N 6 | 16.09 | Overcast | BKN013 BKN018 OVC030 | 23 | 21 | 89% | 76.89 | 0.0 | |||||||
| 30 | 10:15 | NE 6 | 16.09 | Overcast | OVC013 | 23 | 21 | 89% | 76.86 | 0.0 | |||||||
| 30 | 09:55 | NE 6 | 16.09 | Overcast | SCT007 BKN011 OVC027 | 23 | 21 | 89% | 76.86 | 0.0 | |||||||
| 30 | 09:35 | NE 7 | 16.09 | Overcast | OVC007 | 22 | 21 | 94% | 76.86 | 0.0 | |||||||
| 30 | 09:15 | Calm | 16.09 | Overcast | OVC007 | 22 | 22 | 100% | 76.86 | 0.0 | |||||||
| 30 | 08:55 | NE 6 | 16.09 | Overcast | OVC005 | 22 | 22 | 100% | 76.89 | 0.0 | |||||||
| 30 | 08:35 | Calm | 16.09 | Overcast | OVC005 | 22 | 22 | 100% | 76.86 | 0.0 | |||||||
| 30 | 08:15 | Calm | 16.09 | Overcast | OVC005 | 22 | 22 | 100% | 76.86 | 0.0 | |||||||
| 30 | 07:55 | Calm | 8.05 | Fog/Mist | SCT007 | 21 | 21 | 100% | 76.84 | 0.0 | |||||||
| 30 | 07:35 | Calm | 8.05 | Fog/Mist | CLR | 21 | 21 | 100% | 76.81 | 0.0 | |||||||
| 30 | 07:15 | Calm | 11.27 | Fair | CLR | 21 | 21 | 100% | 76.81 | 0.0 | |||||||
| 30 | 06:55 | Calm | 16.09 | Partly Cloudy | SCT023 SCT028 SCT049 | 21 | 21 | 100% | 76.78 | 0.0 | |||||||
| 30 | 06:35 | Calm | 16.09 | Overcast | SCT019 BKN026 OVC045 | 22 | 21 | 94% | 76.76 | 0.0 | |||||||
| 30 | 06:15 | N 6 | 16.09 | Overcast | BKN018 BKN024 OVC044 | 22 | 21 | 94% | 76.76 | 0.0 | |||||||
| 30 | 05:55 | N 6 | 16.09 | Overcast | OVC013 | 22 | 21 | 94% | 76.73 | 0.0 | |||||||
| 30 | 05:35 | Calm | 16.09 | Overcast | OVC013 | 21 | 21 | 100% | 76.73 | 0.0 | |||||||
| 30 | 05:15 | Calm | 16.09 | Overcast | OVC013 | 21 | 21 | 100% | 76.73 | 0.0 | |||||||
| 30 | 04:55 | Calm | 16.09 | Overcast | OVC013 | 22 | 21 | 94% | 76.73 | 0.0 | |||||||
| 30 | 04:35 | Calm | 16.09 | Overcast | OVC015 | 22 | 21 | 94% | 76.73 | 0.0 | |||||||
| 30 | 04:15 | Calm | 16.09 | Overcast | BKN017 OVC027 | 22 | 21 | 94% | 76.73 | 0.0 | |||||||
| 30 | 03:55 | Calm | 16.09 | Overcast | OVC017 | 21 | 21 | 100% | 76.76 | 0.0 | |||||||
| 30 | 03:35 | Calm | 16.09 | Mostly Cloudy | BKN017 | 21 | 21 | 100% | 76.73 | 0.0 | |||||||
| 30 | 03:15 | Calm | 16.09 | Partly Cloudy | SCT038 | 21 | 21 | 100% | 76.73 | 0.0 | |||||||
| 30 | 02:55 | NE 6 | 16.09 | Mostly Cloudy | SCT022 SCT030 BKN038 | 22 | 21 | 94% | 76.73 | 0.0 | |||||||
| 30 | 02:35 | N 7 | 16.09 | Partly Cloudy | SCT022 SCT030 | 21 | 21 | 100% | 76.76 | 0.0 | |||||||
| 30 | 02:15 | Calm | 16.09 | Partly Cloudy | SCT040 | 22 | 21 | 94% | 76.76 | 0.0 | |||||||
| 30 | 01:55 | Calm | 16.09 | Mostly Cloudy | BKN042 | 22 | 21 | 94% | 76.78 | 0.0 | |||||||
| 30 | 01:35 | Calm | 16.09 | Overcast | OVC040 | 23 | 21 | 89% | 76.78 | 0.0 | |||||||
| 30 | 01:15 | Calm | 16.09 | Mostly Cloudy | BKN040 | 23 | 21 | 89% | 76.78 | 0.0 | |||||||
| 30 | 00:55 | Calm | 16.09 | Mostly Cloudy | SCT039 BKN046 BKN060 | 23 | 21 | 89% | 76.78 | 0.0 | |||||||
| 30 | 00:35 | E 6 | 16.09 | Partly Cloudy | SCT041 SCT050 | 23 | 21 | 89% | 76.81 | 0.0 | |||||||
| 30 | 00:15 | E 7 | 16.09 | Mostly Cloudy | SCT035 SCT043 BKN050 | 23 | 21 | 89% | 76.81 | 0.0 | |||||||
| 29 | 23:55 | SE 7 | 16.09 | Mostly Cloudy | BKN035 | 23 | 21 | 89% | 76.81 | 0.0 | |||||||
| 29 | 23:35 | Calm | 16.09 | Fair | CLR | 23 | 21 | 89% | 76.78 | 0.0 | |||||||
| 29 | 23:15 | Calm | 16.09 | Fair | CLR | 23 | 21 | 89% | 76.78 | 0.0 | |||||||
| 29 | 22:55 | Calm | 16.09 | Fair | CLR | 23 | 21 | 89% | 76.78 | 0.0 | |||||||
| 29 | 22:35 | Calm | 16.09 | Partly Cloudy | SCT047 | 22 | 22 | 100% | 76.78 | 0.0 | |||||||
| 29 | 22:15 | Calm | 16.09 | Mostly Cloudy | SCT044 BKN050 | 23 | 22 | 94% | 76.76 | 0.0 | |||||||
| 29 | 21:55 | Calm | 16.09 | Mostly Cloudy | BKN044 BKN050 | 23 | 21 | 89% | 76.73 | 0.0 | |||||||
| 29 | 21:35 | Calm | 16.09 | Fair | CLR | 23 | 22 | 94% | 76.68 | 0.0 | |||||||
| 29 | 21:15 | Calm | 16.09 | Fair | CLR | 24 | 21 | 83% | 24 | 76.66 | 0.0 | ||||||
| 29 | 20:55 | NE 6 | 16.09 | Fair | CLR | 25 | 21 | 79% | 26 | 76.63 | 0.0 | ||||||
| 29 | 20:35 | Calm | 16.09 | Partly Cloudy | SCT045 | 24 | 22 | 89% | 24 | 76.61 | 0.0 | ||||||
| 29 | 20:15 | Calm | 16.09 | Partly Cloudy | SCT045 | 26 | 20 | 70% | 27 | 76.61 | 0.0 | ||||||
| 29 | 19:55 | Calm | 16.09 | Fair | CLR | 27 | 20 | 66% | 29 | 76.61 | 0.0 | ||||||
| 29 | 19:35 | Calm | 16.09 | Fair | CLR | 27 | 20 | 66% | 29 | 76.61 | 0.0 | ||||||
| 29 | 19:15 | Calm | 16.09 | Partly Cloudy | SCT043 | 28 | 20 | 62% | 30 | 76.63 | 0.0 | ||||||
| 29 | 18:55 | Calm | 16.09 | Fair | CLR | 28 | 19 | 58% | 29 | 76.61 | 0.0 | ||||||
| 29 | 18:35 | Calm | 16.09 | Fair | CLR | 28 | 19 | 58% | 29 | 76.61 | 0.0 | ||||||
| 29 | 18:15 | Calm | 16.09 | Fair | CLR | 29 | 19 | 55% | 30 | 76.61 | 0.0 | ||||||
| 29 | 17:55 | Calm | 16.09 | Partly Cloudy | SCT042 | 29 | 19 | 55% | 30 | 76.61 | 0.0 | ||||||
| 29 | 17:35 | Calm | 16.09 | Fair | CLR | 30 | 19 | 52% | 31 | 76.61 | 0.0 | ||||||
| 29 | 17:15 | NE 6 | 16.09 | Fair | CLR | 29 | 18 | 51% | 30 | 76.61 | 0.0 | ||||||
| 29 | 16:55 | Calm | 16.09 | Partly Cloudy | SCT041 SCT050 SCT065 | 30 | 19 | 52% | 31 | 76.61 | 0.0 | ||||||
| 29 | 16:35 | E 7 | 16.09 | Mostly Cloudy | SCT041 BKN050 BKN065 | 30 | 20 | 55% | 32 | 76.63 | 0.0 | ||||||
| 29 | 16:15 | Calm | 16.09 | Fair | CLR | 29 | 18 | 51% | 30 | 76.63 | 0.0 | ||||||
| 29 | 15:55 | Calm | 16.09 | Fair | CLR | 29 | 18 | 51% | 30 | 76.63 | 0.0 | ||||||
| 29 | 15:35 | SE 6 | 16.09 | Partly Cloudy | SCT039 | 29 | 18 | 51% | 30 | 76.66 | 0.0 | ||||||
| 29 | 15:15 | E 6 | 16.09 | Overcast | BKN039 BKN046 OVC055 | 29 | 20 | 58% | 31 | 76.68 | 0.0 | ||||||
| 29 | 14:55 | Calm | 16.09 | Mostly Cloudy | BKN037 BKN050 | 29 | 20 | 58% | 31 | 76.73 | 0.0 | ||||||
| Date | Time (edt) | Wind (kph) | Vis. (km) | Weather | Sky Cond. | Air | Dwpt | Max. | Min. | Relative Humidity | Wind Chill (°C) | Heat Index (°C) | altimeter (cm) | sea level (mb) | 1 hr | 3 hr | 6 hr |
| 6 hour | |||||||||||||||||
| Temperature (ºC) | Pressure | Precipitation (cm) | |||||||||||||||